createdAt,value
2023-01-19T00:00:33.111Z,954.19
2023-01-19T00:01:22.997Z,954.20
2023-01-19T00:02:12.961Z,954.19
2023-01-19T00:03:02.982Z,954.18
2023-01-19T00:03:52.933Z,954.20
2023-01-19T00:04:43.087Z,954.24
2023-01-19T00:05:32.933Z,954.28
2023-01-19T00:06:23.052Z,954.23
2023-01-19T00:07:12.902Z,954.27
2023-01-19T00:08:03.249Z,954.25
2023-01-19T00:08:52.877Z,954.22
2023-01-19T00:09:42.879Z,954.28
2023-01-19T00:10:32.892Z,954.24
2023-01-19T00:11:22.896Z,954.29
2023-01-19T00:12:12.851Z,954.27
2023-01-19T00:13:03.103Z,954.24
2023-01-19T00:13:52.822Z,954.26
2023-01-19T00:14:42.831Z,954.18
2023-01-19T00:15:32.841Z,954.23
2023-01-19T00:16:23.011Z,954.21
2023-01-19T00:17:12.798Z,954.24
2023-01-19T00:18:02.802Z,954.25
2023-01-19T00:18:52.797Z,954.23
2023-01-19T00:19:42.764Z,954.23
2023-01-19T00:20:32.876Z,954.28
2023-01-19T00:21:22.773Z,954.27
2023-01-19T00:22:13.107Z,954.29
2023-01-19T00:23:03.039Z,954.27
2023-01-19T00:23:52.934Z,954.29
2023-01-19T00:24:42.709Z,954.28
2023-01-19T00:25:32.707Z,954.28
2023-01-19T00:26:22.723Z,954.31
2023-01-19T00:27:12.697Z,954.34
2023-01-19T00:28:02.673Z,954.30
2023-01-19T00:28:52.688Z,954.28
2023-01-19T00:29:42.665Z,954.31
2023-01-19T00:30:32.644Z,954.31
2023-01-19T00:31:22.720Z,954.34
2023-01-19T00:32:12.635Z,954.28
2023-01-19T00:33:03.199Z,954.30
2023-01-19T00:33:52.827Z,954.33
2023-01-19T00:34:42.671Z,954.29
2023-01-19T00:35:32.598Z,954.29
2023-01-19T00:36:22.603Z,954.27
2023-01-19T00:37:12.605Z,954.33
2023-01-19T00:38:02.575Z,954.29
2023-01-19T00:38:52.568Z,954.34
2023-01-19T00:39:42.554Z,954.34
2023-01-19T00:40:32.530Z,954.32
2023-01-19T00:41:22.534Z,954.34
2023-01-19T00:42:12.539Z,954.34
2023-01-19T00:43:02.850Z,954.32
2023-01-19T00:43:52.504Z,954.36
2023-01-19T00:44:42.492Z,954.35
2023-01-19T00:45:32.562Z,954.39
2023-01-19T00:46:22.513Z,954.39
2023-01-19T00:47:12.484Z,954.41
2023-01-19T00:48:02.460Z,954.37
2023-01-19T00:48:52.442Z,954.41
2023-01-19T00:49:42.451Z,954.39
2023-01-19T00:50:32.455Z,954.35
2023-01-19T00:51:22.411Z,954.38
2023-01-19T00:52:12.402Z,954.38
2023-01-19T00:53:02.911Z,954.35
2023-01-19T00:53:52.386Z,954.38
2023-01-19T00:54:42.381Z,954.39
2023-01-19T00:55:32.400Z,954.43
2023-01-19T00:56:22.379Z,954.42
2023-01-19T00:57:12.367Z,954.41
2023-01-19T00:58:02.352Z,954.46
2023-01-19T00:58:52.339Z,954.47
2023-01-19T00:59:42.327Z,954.47
2023-01-19T01:00:32.344Z,954.47
2023-01-19T01:01:22.509Z,954.52
2023-01-19T01:02:13.555Z,954.46
2023-01-19T01:03:02.838Z,954.51
2023-01-19T01:03:52.305Z,954.47
2023-01-19T01:04:42.307Z,954.45
2023-01-19T01:05:32.269Z,954.49
2023-01-19T01:06:22.259Z,954.52
2023-01-19T01:07:12.247Z,954.52
2023-01-19T01:08:02.239Z,954.51
2023-01-19T01:08:52.261Z,954.54
2023-01-19T01:09:42.227Z,954.50
2023-01-19T01:10:32.217Z,954.52
2023-01-19T01:11:22.205Z,954.55
2023-01-19T01:12:12.187Z,954.52
2023-01-19T01:13:20.355Z,954.53
2023-01-19T01:13:53.184Z,954.54
2023-01-19T01:14:42.172Z,954.53
2023-01-19T01:15:32.145Z,954.53
2023-01-19T01:16:22.216Z,954.54
2023-01-19T01:17:12.133Z,954.54
2023-01-19T01:18:02.145Z,954.54
2023-01-19T01:18:52.130Z,954.59
2023-01-19T01:19:42.134Z,954.59
2023-01-19T01:20:32.102Z,954.59
2023-01-19T01:21:22.112Z,954.60
2023-01-19T01:22:12.095Z,954.60
2023-01-19T01:23:02.530Z,954.60
2023-01-19T01:23:52.071Z,954.54
2023-01-19T01:24:42.075Z,954.57
2023-01-19T01:25:32.032Z,954.59
2023-01-19T01:26:22.045Z,954.58
2023-01-19T01:27:12.055Z,954.60
2023-01-19T01:28:02.006Z,954.61
2023-01-19T01:28:52.008Z,954.58
2023-01-19T01:29:42.008Z,954.64
2023-01-19T01:30:31.983Z,954.62
2023-01-19T01:31:22.044Z,954.60
2023-01-19T01:32:11.963Z,954.64
2023-01-19T01:33:02.435Z,954.63
2023-01-19T01:33:51.961Z,954.62
2023-01-19T01:34:41.940Z,954.62
2023-01-19T01:35:31.943Z,954.64
2023-01-19T01:36:21.952Z,954.61
2023-01-19T01:37:11.909Z,954.65
2023-01-19T01:38:01.948Z,954.59
2023-01-19T01:38:51.902Z,954.62
2023-01-19T01:39:41.890Z,954.63
2023-01-19T01:40:31.883Z,954.59
2023-01-19T01:41:22.052Z,954.62
2023-01-19T01:42:11.889Z,954.64
2023-01-19T01:43:02.286Z,954.62
2023-01-19T01:43:51.842Z,954.63
2023-01-19T01:44:41.850Z,954.65
2023-01-19T01:45:31.920Z,954.60
2023-01-19T01:46:21.847Z,954.65
2023-01-19T01:47:11.808Z,954.63
2023-01-19T01:48:01.806Z,954.64
2023-01-19T01:48:51.805Z,954.65
2023-01-19T01:49:41.800Z,954.67
2023-01-19T01:50:31.778Z,954.68
2023-01-19T01:51:21.799Z,954.63
2023-01-19T01:52:11.749Z,954.68
2023-01-19T01:53:06.583Z,954.65
2023-01-19T01:53:52.761Z,954.67
2023-01-19T01:54:41.738Z,954.67
2023-01-19T01:55:31.782Z,954.69
2023-01-19T01:56:21.732Z,954.68
2023-01-19T01:57:11.774Z,954.69
2023-01-19T01:58:01.697Z,954.73
2023-01-19T01:58:51.722Z,954.71
2023-01-19T01:59:41.681Z,954.74
2023-01-19T02:00:31.664Z,954.72
2023-01-19T02:01:21.729Z,954.73
2023-01-19T02:02:11.644Z,954.75
2023-01-19T02:03:02.111Z,954.76
2023-01-19T02:03:51.647Z,954.72
2023-01-19T02:04:41.623Z,954.76
2023-01-19T02:05:31.621Z,954.71
2023-01-19T02:06:21.618Z,954.74
2023-01-19T02:07:11.603Z,954.71
2023-01-19T02:08:01.607Z,954.72
2023-01-19T02:08:51.593Z,954.75
2023-01-19T02:09:41.574Z,954.70
2023-01-19T02:10:31.551Z,954.72
2023-01-19T02:11:21.553Z,954.72
2023-01-19T02:12:11.543Z,954.74
2023-01-19T02:13:01.937Z,954.69
2023-01-19T02:13:51.552Z,954.71
2023-01-19T02:14:41.529Z,954.68
2023-01-19T02:15:31.508Z,954.72
2023-01-19T02:16:21.536Z,954.71
2023-01-19T02:17:11.494Z,954.70
2023-01-19T02:18:01.474Z,954.68
2023-01-19T02:18:51.465Z,954.70
2023-01-19T02:19:41.468Z,954.69
2023-01-19T02:20:31.473Z,954.68
2023-01-19T02:21:21.430Z,954.68
2023-01-19T02:22:11.455Z,954.66
2023-01-19T02:23:01.950Z,954.70
2023-01-19T02:23:51.427Z,954.70
2023-01-19T02:24:41.388Z,954.68
2023-01-19T02:25:31.387Z,954.68
2023-01-19T02:26:21.389Z,954.66
2023-01-19T02:27:11.417Z,954.64
2023-01-19T02:28:01.357Z,954.63
2023-01-19T02:28:51.358Z,954.63
2023-01-19T02:29:41.359Z,954.69
2023-01-19T02:30:31.371Z,954.65
2023-01-19T02:31:21.344Z,954.62
2023-01-19T02:32:11.347Z,954.60
2023-01-19T02:33:01.787Z,954.62
2023-01-19T02:33:51.314Z,954.68
2023-01-19T02:34:41.310Z,954.69
2023-01-19T02:35:31.296Z,954.69
2023-01-19T02:36:21.291Z,954.72
2023-01-19T02:37:11.287Z,954.70
2023-01-19T02:38:01.257Z,954.70
2023-01-19T02:38:51.258Z,954.73
2023-01-19T02:39:41.247Z,954.73
2023-01-19T02:40:31.247Z,954.73
2023-01-19T02:41:21.264Z,954.73
2023-01-19T02:42:11.227Z,954.77
2023-01-19T02:43:01.686Z,954.79
2023-01-19T02:43:51.205Z,954.75
2023-01-19T02:44:41.174Z,954.80
2023-01-19T02:45:31.195Z,954.81
2023-01-19T02:46:21.203Z,954.82
2023-01-19T02:47:11.152Z,954.82
2023-01-19T02:48:01.151Z,954.82
2023-01-19T02:48:51.152Z,954.84
2023-01-19T02:49:41.122Z,954.78
2023-01-19T02:50:32.098Z,954.86
2023-01-19T02:51:21.119Z,954.81
2023-01-19T02:52:11.092Z,954.83
2023-01-19T02:53:01.442Z,954.85
2023-01-19T02:53:51.082Z,954.86
2023-01-19T02:54:41.067Z,954.83
2023-01-19T02:55:31.071Z,954.85
2023-01-19T02:56:21.085Z,954.88
2023-01-19T02:57:11.051Z,954.83
2023-01-19T02:58:01.042Z,954.85
2023-01-19T02:58:51.041Z,954.80
2023-01-19T02:59:41.038Z,954.85
2023-01-19T03:00:31.025Z,954.81
2023-01-19T03:01:21.058Z,954.79
2023-01-19T03:02:11.136Z,954.79
2023-01-19T03:03:01.414Z,954.79
2023-01-19T03:03:50.998Z,954.78
2023-01-19T03:04:40.958Z,954.80
2023-01-19T03:05:30.972Z,954.77
2023-01-19T03:06:20.958Z,954.72
2023-01-19T03:07:10.948Z,954.76
2023-01-19T03:08:00.938Z,954.78
2023-01-19T03:08:50.920Z,954.82
2023-01-19T03:09:40.918Z,954.78
2023-01-19T03:10:30.926Z,954.80
2023-01-19T03:11:20.896Z,954.81
2023-01-19T03:12:10.896Z,954.80
2023-01-19T03:13:01.152Z,954.81
2023-01-19T03:13:50.885Z,954.87
2023-01-19T03:14:40.853Z,954.80
2023-01-19T03:15:30.894Z,954.76
2023-01-19T03:16:21.883Z,954.80
2023-01-19T03:17:10.825Z,954.81
2023-01-19T03:18:00.824Z,954.78
2023-01-19T03:18:50.840Z,954.81
2023-01-19T03:19:40.805Z,954.82
2023-01-19T03:20:30.813Z,954.85
2023-01-19T03:21:20.795Z,954.81
2023-01-19T03:22:10.784Z,954.83
2023-01-19T03:23:01.133Z,954.78
2023-01-19T03:23:50.767Z,954.81
2023-01-19T03:24:40.762Z,954.83
2023-01-19T03:25:30.774Z,954.78
2023-01-19T03:26:20.731Z,954.79
2023-01-19T03:27:10.756Z,954.80
2023-01-19T03:28:00.702Z,954.80
2023-01-19T03:28:50.713Z,954.85
2023-01-19T03:29:40.701Z,954.81
2023-01-19T03:30:30.710Z,954.77
2023-01-19T03:31:20.682Z,954.81
2023-01-19T03:32:10.682Z,954.80
2023-01-19T03:33:01.123Z,954.84
2023-01-19T03:33:50.658Z,954.80
2023-01-19T03:34:40.645Z,954.80
2023-01-19T03:35:30.639Z,954.80
2023-01-19T03:36:20.613Z,954.80
2023-01-19T03:37:10.600Z,954.80
2023-01-19T03:38:00.608Z,954.81
2023-01-19T03:38:50.585Z,954.77
2023-01-19T03:39:40.632Z,954.80
2023-01-19T03:40:30.587Z,954.81
2023-01-19T03:41:20.550Z,954.79
2023-01-19T03:42:10.558Z,954.79
2023-01-19T03:43:00.894Z,954.82
2023-01-19T03:43:50.562Z,954.78
2023-01-19T03:44:40.539Z,954.77
2023-01-19T03:45:30.531Z,954.79
2023-01-19T03:46:20.557Z,954.80
2023-01-19T03:47:10.519Z,954.77
2023-01-19T03:48:00.493Z,954.79
2023-01-19T03:48:50.477Z,954.82
2023-01-19T03:49:40.470Z,954.81
2023-01-19T03:50:30.480Z,954.84
2023-01-19T03:51:20.458Z,954.83
2023-01-19T03:52:10.466Z,954.85
2023-01-19T03:53:00.826Z,954.82
2023-01-19T03:53:50.423Z,954.85
2023-01-19T03:54:40.423Z,954.84
2023-01-19T03:55:30.408Z,954.83
2023-01-19T03:56:20.386Z,954.85
2023-01-19T03:57:10.406Z,954.86
2023-01-19T03:58:00.405Z,954.89
2023-01-19T03:58:50.401Z,954.91
2023-01-19T03:59:40.360Z,954.90
2023-01-19T04:00:30.343Z,954.92
2023-01-19T04:01:20.544Z,954.91
2023-01-19T04:02:10.403Z,954.99
2023-01-19T04:03:00.761Z,954.94
2023-01-19T04:03:50.327Z,954.99
2023-01-19T04:04:40.315Z,955.03
2023-01-19T04:05:30.299Z,955.03
2023-01-19T04:06:20.294Z,955.02
2023-01-19T04:07:10.303Z,955.06
2023-01-19T04:08:00.262Z,954.99
2023-01-19T04:08:50.306Z,955.03
2023-01-19T04:09:40.254Z,955.02
2023-01-19T04:10:30.245Z,955.00
2023-01-19T04:11:20.261Z,955.04
2023-01-19T04:12:10.213Z,954.97
2023-01-19T04:13:00.775Z,954.96
2023-01-19T04:13:50.220Z,954.97
2023-01-19T04:14:40.209Z,954.93
2023-01-19T04:15:30.182Z,954.97
2023-01-19T04:16:20.312Z,955.02
2023-01-19T04:17:10.176Z,954.99
2023-01-19T04:18:00.193Z,954.98
2023-01-19T04:18:50.185Z,954.96
2023-01-19T04:19:40.130Z,954.99
2023-01-19T04:20:30.177Z,954.99
2023-01-19T04:21:20.144Z,954.94
2023-01-19T04:22:10.140Z,954.98
2023-01-19T04:23:00.476Z,955.01
2023-01-19T04:23:50.103Z,955.01
2023-01-19T04:24:40.088Z,955.04
2023-01-19T04:25:30.109Z,955.10
2023-01-19T04:26:20.080Z,955.03
2023-01-19T04:27:10.057Z,955.04
2023-01-19T04:28:00.051Z,955.03
2023-01-19T04:28:50.035Z,955.00
2023-01-19T04:29:40.037Z,955.01
2023-01-19T04:30:30.041Z,954.98
2023-01-19T04:31:20.155Z,955.00
2023-01-19T04:32:09.998Z,954.96
2023-01-19T04:33:00.501Z,954.98
2023-01-19T04:33:50.004Z,954.99
2023-01-19T04:34:39.969Z,955.02
2023-01-19T04:35:29.988Z,955.03
2023-01-19T04:36:19.976Z,955.08
2023-01-19T04:37:09.977Z,955.04
2023-01-19T04:37:59.934Z,955.06
2023-01-19T04:38:49.952Z,955.08
2023-01-19T04:39:39.915Z,955.11
2023-01-19T04:40:29.915Z,955.14
2023-01-19T04:41:19.924Z,955.16
2023-01-19T04:42:09.920Z,955.14
2023-01-19T04:43:00.270Z,955.14
2023-01-19T04:43:49.882Z,955.11
2023-01-19T04:44:39.890Z,955.14
2023-01-19T04:45:29.856Z,955.09
2023-01-19T04:46:19.882Z,955.12
2023-01-19T04:47:09.874Z,955.10
2023-01-19T04:47:59.832Z,955.13
2023-01-19T04:48:49.868Z,955.11
2023-01-19T04:49:39.804Z,955.12
2023-01-19T04:50:29.823Z,955.10
2023-01-19T04:51:19.792Z,955.12
2023-01-19T04:52:09.805Z,955.09
2023-01-19T04:53:00.094Z,955.08
2023-01-19T04:53:49.795Z,955.09
2023-01-19T04:54:39.809Z,955.04
2023-01-19T04:55:29.749Z,955.06
2023-01-19T04:56:19.745Z,955.10
2023-01-19T04:57:09.748Z,955.04
2023-01-19T04:57:59.721Z,955.02
2023-01-19T04:58:49.725Z,955.06
2023-01-19T04:59:39.696Z,955.08
2023-01-19T05:00:29.705Z,955.08
2023-01-19T05:01:19.713Z,955.08
2023-01-19T05:02:09.760Z,955.04
2023-01-19T05:03:00.245Z,955.08
2023-01-19T05:03:49.675Z,955.13
2023-01-19T05:04:39.649Z,955.13
2023-01-19T05:05:29.653Z,955.17
2023-01-19T05:06:19.625Z,955.11
2023-01-19T05:07:09.637Z,955.17
2023-01-19T05:07:59.655Z,955.17
2023-01-19T05:08:49.619Z,955.16
2023-01-19T05:09:39.587Z,955.19
2023-01-19T05:10:29.594Z,955.14
2023-01-19T05:11:19.567Z,955.18
2023-01-19T05:12:09.564Z,955.20
2023-01-19T05:12:59.955Z,955.23
2023-01-19T05:13:51.013Z,955.24
2023-01-19T05:14:39.553Z,955.25
2023-01-19T05:15:29.541Z,955.19
2023-01-19T05:16:19.571Z,955.25
2023-01-19T05:17:09.526Z,955.26
2023-01-19T05:17:59.521Z,955.24
2023-01-19T05:18:49.498Z,955.26
2023-01-19T05:19:39.491Z,955.25
2023-01-19T05:20:29.481Z,955.30
2023-01-19T05:21:19.462Z,955.32
2023-01-19T05:22:09.491Z,955.33
2023-01-19T05:22:59.833Z,955.33
2023-01-19T05:23:49.466Z,955.38
2023-01-19T05:24:39.452Z,955.35
2023-01-19T05:25:29.445Z,955.35
2023-01-19T05:26:19.428Z,955.35
2023-01-19T05:27:09.424Z,955.40
2023-01-19T05:27:59.415Z,955.44
2023-01-19T05:28:49.420Z,955.45
2023-01-19T05:29:39.396Z,955.46
2023-01-19T05:30:29.376Z,955.46
2023-01-19T05:31:19.747Z,955.44
2023-01-19T05:32:09.367Z,955.43
2023-01-19T05:32:59.705Z,955.45
2023-01-19T05:33:49.353Z,955.46
2023-01-19T05:34:39.356Z,955.44
2023-01-19T05:35:35.761Z,955.50
2023-01-19T05:36:20.343Z,955.48
2023-01-19T05:37:09.303Z,955.48
2023-01-19T05:37:59.300Z,955.48
2023-01-19T05:38:49.311Z,955.49
2023-01-19T05:39:39.283Z,955.49
2023-01-19T05:40:29.256Z,955.50
2023-01-19T05:41:19.270Z,955.48
2023-01-19T05:42:09.253Z,955.53
2023-01-19T05:42:59.653Z,955.51
2023-01-19T05:43:49.229Z,955.52
2023-01-19T05:44:39.247Z,955.58
2023-01-19T05:45:29.221Z,955.54
2023-01-19T05:46:19.228Z,955.57
2023-01-19T05:47:09.192Z,955.58
2023-01-19T05:47:59.234Z,955.59
2023-01-19T05:48:49.189Z,955.61
2023-01-19T05:49:39.227Z,955.62
2023-01-19T05:50:29.144Z,955.59
2023-01-19T05:51:19.151Z,955.62
2023-01-19T05:52:09.146Z,955.62
2023-01-19T05:52:59.496Z,955.60
2023-01-19T05:53:49.118Z,955.62
2023-01-19T05:54:39.106Z,955.61
2023-01-19T05:55:29.137Z,955.64
2023-01-19T05:56:19.081Z,955.69
2023-01-19T05:57:09.077Z,955.62
2023-01-19T05:57:59.090Z,955.69
2023-01-19T05:58:49.055Z,955.66
2023-01-19T05:59:39.053Z,955.62
2023-01-19T06:00:29.076Z,955.63
2023-01-19T06:01:19.095Z,955.66
2023-01-19T06:02:09.086Z,955.67
2023-01-19T06:02:59.569Z,955.64
2023-01-19T06:03:49.025Z,955.65
2023-01-19T06:04:38.995Z,955.65
2023-01-19T06:05:28.997Z,955.64
2023-01-19T06:06:18.983Z,955.65
2023-01-19T06:07:08.960Z,955.65
2023-01-19T06:07:58.982Z,955.67
2023-01-19T06:08:48.961Z,955.69
2023-01-19T06:09:38.958Z,955.68
2023-01-19T06:10:28.936Z,955.67
2023-01-19T06:11:18.964Z,955.67
2023-01-19T06:12:08.920Z,955.64
2023-01-19T06:12:59.371Z,955.70
2023-01-19T06:13:48.894Z,955.69
2023-01-19T06:14:38.912Z,955.68
2023-01-19T06:15:28.899Z,955.71
2023-01-19T06:16:18.942Z,955.73
2023-01-19T06:17:08.871Z,955.73
2023-01-19T06:17:58.859Z,955.72
2023-01-19T06:18:48.857Z,955.78
2023-01-19T06:19:38.840Z,955.71
2023-01-19T06:20:28.857Z,955.75
2023-01-19T06:21:18.820Z,955.72
2023-01-19T06:22:08.831Z,955.74
2023-01-19T06:22:59.368Z,955.72
2023-01-19T06:23:48.789Z,955.69
2023-01-19T06:24:38.796Z,955.75
2023-01-19T06:25:28.803Z,955.75
2023-01-19T06:26:18.769Z,955.76
2023-01-19T06:27:08.762Z,955.77
2023-01-19T06:27:58.780Z,955.74
2023-01-19T06:28:48.750Z,955.75
2023-01-19T06:29:38.732Z,955.73
2023-01-19T06:30:28.732Z,955.69
2023-01-19T06:31:18.748Z,955.72
2023-01-19T06:32:08.697Z,955.76
2023-01-19T06:32:58.985Z,955.73
2023-01-19T06:33:48.758Z,955.69
2023-01-19T06:34:38.678Z,955.77
2023-01-19T06:35:28.667Z,955.73
2023-01-19T06:36:18.665Z,955.73
2023-01-19T06:37:08.659Z,955.77
2023-01-19T06:37:58.679Z,955.74
2023-01-19T06:38:48.631Z,955.74
2023-01-19T06:39:38.634Z,955.74
2023-01-19T06:40:28.637Z,955.78
2023-01-19T06:41:18.594Z,955.84
2023-01-19T06:42:08.603Z,955.82
2023-01-19T06:42:58.897Z,955.76
2023-01-19T06:43:48.585Z,955.78
2023-01-19T06:44:38.564Z,955.78
2023-01-19T06:45:28.596Z,955.81
2023-01-19T06:46:18.550Z,955.82
2023-01-19T06:47:15.568Z,955.79
2023-01-19T06:47:59.531Z,955.78
2023-01-19T06:48:48.565Z,955.76
2023-01-19T06:49:38.522Z,955.79
2023-01-19T06:50:28.514Z,955.84
2023-01-19T06:51:18.499Z,955.81
2023-01-19T06:52:08.488Z,955.80
2023-01-19T06:52:58.986Z,955.91
2023-01-19T06:53:48.473Z,955.80
2023-01-19T06:54:38.506Z,955.84
2023-01-19T06:55:28.454Z,955.88
2023-01-19T06:56:18.447Z,955.92
2023-01-19T06:57:08.431Z,955.89
2023-01-19T06:57:58.442Z,955.93
2023-01-19T06:58:48.438Z,955.90
2023-01-19T06:59:38.425Z,955.97
2023-01-19T07:00:28.420Z,955.98
2023-01-19T07:01:18.465Z,955.98
2023-01-19T07:02:27.426Z,955.98
2023-01-19T07:02:59.763Z,955.95
2023-01-19T07:03:48.371Z,955.96
2023-01-19T07:04:38.349Z,955.96
2023-01-19T07:05:28.374Z,955.98
2023-01-19T07:06:18.342Z,955.97
2023-01-19T07:07:08.329Z,955.96
2023-01-19T07:07:58.322Z,955.95
2023-01-19T07:08:48.319Z,955.96
2023-01-19T07:09:38.310Z,955.98
2023-01-19T07:11:22.212Z,956.00
2023-01-19T07:11:24.755Z,955.94
2023-01-19T07:12:09.321Z,955.98
2023-01-19T07:12:58.913Z,955.97
2023-01-19T07:13:48.264Z,955.93
2023-01-19T07:14:38.255Z,955.96
2023-01-19T07:15:28.260Z,955.99
2023-01-19T07:16:18.267Z,955.92
2023-01-19T07:17:08.245Z,955.96
2023-01-19T07:17:58.210Z,955.95
2023-01-19T07:18:48.217Z,956.00
2023-01-19T07:19:38.197Z,955.99
2023-01-19T07:20:28.220Z,955.97
2023-01-19T07:21:18.264Z,955.95
2023-01-19T07:22:08.194Z,955.98
2023-01-19T07:22:58.877Z,955.96
2023-01-19T07:23:48.151Z,955.96
2023-01-19T07:24:38.344Z,956.00
2023-01-19T07:25:28.147Z,955.99
2023-01-19T07:26:18.143Z,956.03
2023-01-19T07:27:08.133Z,956.02
2023-01-19T07:27:58.124Z,956.02
2023-01-19T07:28:48.350Z,955.99
2023-01-19T07:29:38.093Z,955.99
2023-01-19T07:30:28.197Z,956.01
2023-01-19T07:31:18.184Z,956.01
2023-01-19T07:32:08.063Z,956.03
2023-01-19T07:32:58.656Z,955.99
2023-01-19T07:33:48.049Z,955.97
2023-01-19T07:34:38.032Z,956.05
2023-01-19T07:35:28.050Z,955.98
2023-01-19T07:36:18.035Z,956.01
2023-01-19T07:37:08.001Z,956.00
2023-01-19T07:37:57.993Z,956.02
2023-01-19T07:38:48.027Z,956.00
2023-01-19T07:39:38.039Z,955.98
2023-01-19T07:40:28.018Z,955.99
2023-01-19T07:41:18.003Z,956.03
2023-01-19T07:42:07.954Z,956.05
2023-01-19T07:42:58.218Z,956.06
2023-01-19T07:43:47.950Z,956.05
2023-01-19T07:44:37.912Z,956.11
2023-01-19T07:45:28.100Z,956.09
2023-01-19T07:46:17.928Z,956.08
2023-01-19T07:47:07.899Z,956.08
2023-01-19T07:47:57.903Z,956.09
2023-01-19T07:48:47.881Z,956.11
2023-01-19T07:49:37.876Z,956.08
2023-01-19T07:50:27.871Z,956.09
2023-01-19T07:51:17.868Z,956.05
2023-01-19T07:52:07.839Z,956.04
2023-01-19T07:52:58.055Z,956.02
2023-01-19T07:53:47.817Z,956.04
2023-01-19T07:54:37.807Z,956.07
2023-01-19T07:55:27.840Z,956.05
2023-01-19T07:56:17.815Z,956.11
2023-01-19T07:57:07.800Z,956.06
2023-01-19T07:57:57.806Z,956.08
2023-01-19T07:58:47.783Z,956.09
2023-01-19T07:59:37.758Z,956.08
2023-01-19T08:00:27.743Z,956.09
2023-01-19T08:01:17.837Z,956.12
2023-01-19T08:02:09.312Z,956.07
2023-01-19T08:02:57.893Z,956.09
2023-01-19T08:03:47.751Z,956.08
2023-01-19T08:04:37.761Z,956.09
2023-01-19T08:05:27.705Z,956.10
2023-01-19T08:06:17.714Z,956.14
2023-01-19T08:07:07.690Z,956.12
2023-01-19T08:07:57.692Z,956.14
2023-01-19T08:08:47.683Z,956.17
2023-01-19T08:09:37.662Z,956.13
2023-01-19T08:10:27.644Z,956.13
2023-01-19T08:11:17.666Z,956.17
2023-01-19T08:12:07.663Z,956.14
2023-01-19T08:12:57.700Z,956.16
2023-01-19T08:13:47.622Z,956.19
2023-01-19T08:14:37.604Z,956.21
2023-01-19T08:15:27.663Z,956.19
2023-01-19T08:16:17.590Z,956.22
2023-01-19T08:17:07.582Z,956.21
2023-01-19T08:17:57.583Z,956.20
2023-01-19T08:18:47.563Z,956.24
2023-01-19T08:19:39.038Z,956.25
2023-01-19T08:20:27.563Z,956.27
2023-01-19T08:21:17.529Z,956.28
2023-01-19T08:22:07.534Z,956.27
2023-01-19T08:22:57.883Z,956.28
2023-01-19T08:23:47.539Z,956.32
2023-01-19T08:24:37.494Z,956.30
2023-01-19T08:25:27.484Z,956.33
2023-01-19T08:26:17.468Z,956.36
2023-01-19T08:27:07.458Z,956.38
2023-01-19T08:27:57.526Z,956.38
2023-01-19T08:28:47.458Z,956.40
2023-01-19T08:29:37.471Z,956.43
2023-01-19T08:30:27.446Z,956.44
2023-01-19T08:31:21.726Z,956.39
2023-01-19T08:32:08.527Z,956.40
2023-01-19T08:32:57.422Z,956.43
2023-01-19T08:33:47.418Z,956.44
2023-01-19T08:34:37.418Z,956.42
2023-01-19T08:35:27.847Z,956.44
2023-01-19T08:36:17.369Z,956.42
2023-01-19T08:37:07.356Z,956.43
2023-01-19T08:37:57.357Z,956.44
2023-01-19T08:38:47.432Z,956.39
2023-01-19T08:39:37.355Z,956.40
2023-01-19T08:40:27.358Z,956.41
2023-01-19T08:41:17.329Z,956.35
2023-01-19T08:42:07.327Z,956.48
2023-01-19T08:42:57.313Z,956.43
2023-01-19T08:43:47.274Z,956.38
2023-01-19T08:44:41.434Z,956.45
2023-01-19T08:45:28.313Z,956.47
2023-01-19T08:46:17.296Z,956.43
2023-01-19T08:47:07.316Z,956.44
2023-01-19T08:47:57.282Z,956.44
2023-01-19T08:48:47.247Z,956.39
2023-01-19T08:49:37.235Z,956.41
2023-01-19T08:50:27.223Z,956.46
2023-01-19T08:51:17.219Z,956.41
2023-01-19T08:52:07.188Z,956.47
2023-01-19T08:52:57.255Z,956.43
2023-01-19T08:53:47.202Z,956.43
2023-01-19T08:54:37.187Z,956.46
2023-01-19T08:55:27.162Z,956.46
2023-01-19T08:56:19.002Z,956.47
2023-01-19T08:57:07.174Z,956.47
2023-01-19T08:57:57.156Z,956.45
2023-01-19T08:58:53.665Z,956.50
2023-01-19T08:59:38.155Z,956.47
2023-01-19T09:00:27.153Z,956.51
2023-01-19T09:01:17.257Z,956.51
2023-01-19T09:02:07.132Z,956.52
2023-01-19T09:02:57.136Z,956.56
2023-01-19T09:03:47.131Z,956.54
2023-01-19T09:04:37.085Z,956.57
2023-01-19T09:05:27.064Z,956.59
2023-01-19T09:06:17.039Z,956.57
2023-01-19T09:07:07.159Z,956.58
2023-01-19T09:07:57.041Z,956.56
2023-01-19T09:08:47.028Z,956.59
2023-01-19T09:09:37.023Z,956.61
2023-01-19T09:10:27.001Z,956.60
2023-01-19T09:11:17.010Z,956.61
2023-01-19T09:12:06.994Z,956.60
2023-01-19T09:12:56.991Z,956.61
2023-01-19T09:13:46.998Z,956.63
2023-01-19T09:14:36.955Z,956.59
2023-01-19T09:15:26.958Z,956.63
2023-01-19T09:16:16.935Z,956.59
2023-01-19T09:17:06.917Z,956.58
2023-01-19T09:17:56.934Z,956.58
2023-01-19T09:18:46.925Z,956.53
2023-01-19T09:19:36.916Z,956.55
2023-01-19T09:20:26.888Z,956.53
2023-01-19T09:21:16.883Z,956.53
2023-01-19T09:22:06.877Z,956.48
2023-01-19T09:22:56.883Z,956.49
2023-01-19T09:23:46.875Z,956.51
2023-01-19T09:24:36.846Z,956.48
2023-01-19T09:25:26.835Z,956.52
2023-01-19T09:26:16.822Z,956.52
2023-01-19T09:27:06.856Z,956.56
2023-01-19T09:27:56.801Z,956.53
2023-01-19T09:28:46.804Z,956.53
2023-01-19T09:29:36.802Z,956.53
2023-01-19T09:30:26.793Z,956.53
2023-01-19T09:31:16.910Z,956.52
2023-01-19T09:32:06.759Z,956.54
2023-01-19T09:32:59.292Z,956.60
2023-01-19T09:33:46.764Z,956.58
2023-01-19T09:34:36.731Z,956.55
2023-01-19T09:35:26.746Z,956.52
2023-01-19T09:36:16.718Z,956.56
2023-01-19T09:37:06.700Z,956.55
2023-01-19T09:37:56.893Z,956.52
2023-01-19T09:38:46.703Z,956.51
2023-01-19T09:39:36.718Z,956.54
2023-01-19T09:40:26.683Z,956.55
2023-01-19T09:41:16.687Z,956.52
2023-01-19T09:42:06.657Z,956.56
2023-01-19T09:42:56.640Z,956.48
2023-01-19T09:43:46.629Z,956.52
2023-01-19T09:44:36.622Z,956.51
2023-01-19T09:45:26.652Z,956.51
2023-01-19T09:46:16.683Z,956.52
2023-01-19T09:47:06.607Z,956.51
2023-01-19T09:47:56.591Z,956.54
2023-01-19T09:48:46.584Z,956.53
2023-01-19T09:49:36.560Z,956.49
2023-01-19T09:50:26.568Z,956.54
2023-01-19T09:51:16.538Z,956.52
2023-01-19T09:52:06.571Z,956.53
2023-01-19T09:52:56.516Z,956.54
2023-01-19T09:53:46.521Z,956.51
2023-01-19T09:54:36.511Z,956.49
2023-01-19T09:55:26.529Z,956.50
2023-01-19T09:56:16.505Z,956.52
2023-01-19T09:57:06.486Z,956.50
2023-01-19T09:57:56.475Z,956.53
2023-01-19T09:58:46.468Z,956.54
2023-01-19T09:59:36.447Z,956.53
2023-01-19T10:00:26.478Z,956.55
2023-01-19T10:01:16.483Z,956.54
2023-01-19T10:02:06.447Z,956.48
2023-01-19T10:02:56.466Z,956.50
2023-01-19T10:03:46.426Z,956.57
2023-01-19T10:04:36.425Z,956.55
2023-01-19T10:05:26.419Z,956.54
2023-01-19T10:06:16.392Z,956.56
2023-01-19T10:07:06.388Z,956.57
2023-01-19T10:07:56.410Z,956.62
2023-01-19T10:08:46.363Z,956.52
2023-01-19T10:09:36.346Z,956.50
2023-01-19T10:10:26.386Z,956.52
2023-01-19T10:11:16.340Z,956.51
2023-01-19T10:12:06.371Z,956.54
2023-01-19T10:12:56.317Z,956.52
2023-01-19T10:13:46.312Z,956.52
2023-01-19T10:14:36.289Z,956.60
2023-01-19T10:15:26.315Z,956.63
2023-01-19T10:16:16.327Z,956.58
2023-01-19T10:17:06.379Z,956.57
2023-01-19T10:17:56.270Z,956.58
2023-01-19T10:18:46.264Z,956.58
2023-01-19T10:19:36.249Z,956.56
2023-01-19T10:20:26.247Z,956.58
2023-01-19T10:21:16.251Z,956.54
2023-01-19T10:22:06.250Z,956.57
2023-01-19T10:22:56.326Z,956.54
2023-01-19T10:23:46.260Z,956.55